Terminal Aerodrome Forecast
Issued by NWS

Home | Current Version | Previous Version | Text Only | Print | Product List | Glossary On
Versions: 1 2 3 4 5 6 7 8 9 10 11 12 13 14 15 16 17 18
060
FTUS41 KBTV 291138
TAFMSS
TAF
KMSS 291138Z 2912/3012 05005KT P6SM -SHRA OVC070
     FM291400 14009KT 5SM SHRA BR SCT025 OVC040
      TEMPO 2915/2918 OVC025
     FM291900 17010G18KT P6SM VCSH BKN035
     FM292300 18009KT P6SM VCSH BKN035
     FM300000 19008KT P6SM SCT040
     FM301000 19007KT P6SM VCSH BKN100=

USA.gov is the U.S. government's official web portal to all federal, state and local government web resources and services.